Time;durP1;ratioP1;P1;durP2;ratioP2;P2;SDS_P1;SDS_P2;PMS_P1;PMS_P2;Temp;Humidity;BMP_temperature;BMP_pressure;BME280_temperature;BME280_humidity;BME280_pressure;Samples;Min_cycle;Max_cycle;Signal;HPM_P1;HPM_P2
2021/01/18 00:00:10;;;;;;;13.15;7.28;;;;;;;4.70;52.82;101944.81;5031290;28;20045;-70
2021/01/18 00:02:42;;;;;;;12.80;6.20;;;;;;;4.67;53.07;101948.56;5023275;28;20045;-70
2021/01/18 00:05:10;;;;;;;12.13;6.30;;;;;;;4.68;52.98;101950.34;5031627;28;20060;-70
2021/01/18 00:07:48;;;;;;;9.75;5.38;;;;;;;4.69;53.67;101949.38;5024783;28;20140;-70
2021/01/18 00:10:19;;;;;;;13.75;6.00;;;;;;;4.67;53.08;101939.56;5024672;28;20449;-70
2021/01/18 00:12:47;;;;;;;11.18;5.63;;;;;;;4.68;52.91;101944.03;5028524;28;20535;-70
2021/01/18 00:15:16;;;;;;;13.27;6.18;;;;;;;4.67;53.04;101943.16;5031372;28;20033;-70
2021/01/18 00:17:45;;;;;;;12.35;6.05;;;;;;;4.67;52.96;101953.13;5028850;28;20473;-70
2021/01/18 00:20:14;;;;;;;15.70;6.80;;;;;;;4.67;53.04;101942.28;5020480;28;20069;-71
2021/01/18 00:22:42;;;;;;;12.23;6.57;;;;;;;4.67;53.06;101947.69;5021536;28;20108;-70
2021/01/18 00:25:11;;;;;;;10.63;6.25;;;;;;;4.65;53.28;101947.75;5030973;28;20481;-70
2021/01/18 00:27:39;;;;;;;13.52;7.90;;;;;;;4.64;53.07;101942.41;5021666;28;20091;-71
2021/01/18 00:30:09;;;;;;;12.23;6.93;;;;;;;4.65;52.99;101936.03;5025401;28;20135;-70
2021/01/18 00:32:38;;;;;;;12.75;6.78;;;;;;;4.65;52.78;101949.59;5027701;28;20104;-70
2021/01/18 00:35:09;;;;;;;11.32;6.63;;;;;;;4.64;53.10;101945.13;5046059;28;20061;-70
2021/01/18 00:37:43;;;;;;;10.48;6.45;;;;;;;4.64;53.33;101940.56;5025064;28;20125;-70
2021/01/18 00:40:12;;;;;;;14.10;7.05;;;;;;;4.62;52.88;101942.47;5028801;28;20044;-70
2021/01/18 00:42:40;;;;;;;14.93;7.05;;;;;;;4.62;52.77;101944.28;5026516;28;20036;-70
2021/01/18 00:45:09;;;;;;;12.02;6.72;;;;;;;4.63;52.96;101944.22;5025503;28;20037;-70
2021/01/18 00:47:41;;;;;;;12.00;6.50;;;;;;;4.62;53.13;101945.16;5030122;28;20037;-70
2021/01/18 00:50:11;;;;;;;11.85;7.78;;;;;;;4.60;53.01;101952.50;5023835;28;20056;-70
2021/01/18 00:52:40;;;;;;;15.65;7.60;;;;;;;4.60;52.87;101940.78;5024535;28;20053;-70
2021/01/18 00:55:12;;;;;;;12.48;6.75;;;;;;;4.62;52.75;101944.28;5041581;28;20104;-70
2021/01/18 00:57:54;;;;;;;12.38;6.95;;;;;;;4.58;52.83;101943.56;5022252;28;20054;-70
2021/01/18 01:00:23;;;;;;;11.70;6.65;;;;;;;4.59;52.67;101945.31;5025473;28;20516;-70
2021/01/18 01:02:57;;;;;;;14.90;6.85;;;;;;;4.58;52.79;101943.56;5028510;28;20048;-70
2021/01/18 01:05:29;;;;;;;14.32;7.65;;;;;;;4.56;52.82;101941.84;5029089;28;20059;-70
2021/01/18 01:07:59;;;;;;;10.60;6.57;;;;;;;4.57;52.64;101932.78;5024153;28;20129;-70
2021/01/18 01:10:27;;;;;;;14.23;7.22;;;;;;;4.58;52.89;101937.25;5026402;28;20049;-70
2021/01/18 01:12:55;;;;;;;14.23;7.38;;;;;;;4.57;52.48;101930.06;5029315;28;20045;-70
2021/01/18 01:15:23;;;;;;;12.18;6.78;;;;;;;4.56;52.73;101934.63;5030430;28;20396;-70
2021/01/18 01:17:50;;;;;;;13.68;6.68;;;;;;;4.55;53.09;101934.69;5027953;28;20110;-70
2021/01/18 01:20:19;;;;;;;10.52;5.10;;;;;;;4.56;52.71;101928.31;5024880;28;20042;-70
2021/01/18 01:22:48;;;;;;;11.00;4.78;;;;;;;4.57;52.94;101932.78;5028631;28;20554;-70
2021/01/18 01:25:16;;;;;;;8.30;4.40;;;;;;;4.57;53.03;101936.38;5022183;28;20045;-70
2021/01/18 01:27:44;;;;;;;8.25;4.40;;;;;;;4.55;52.75;101930.13;5032292;28;20041;-70
2021/01/18 01:30:13;;;;;;;8.65;3.80;;;;;;;4.56;52.99;101931.03;5034521;28;20072;-71
2021/01/18 01:32:42;;;;;;;7.85;4.00;;;;;;;4.56;52.98;101940.03;5032397;28;20041;-70
2021/01/18 01:35:11;;;;;;;8.55;4.20;;;;;;;4.55;52.80;101932.84;5031739;28;20116;-70
2021/01/18 01:37:38;;;;;;;11.10;4.50;;;;;;;4.54;53.05;101933.78;5027059;28;20108;-70
2021/01/18 01:40:09;;;;;;;8.77;4.32;;;;;;;4.55;53.10;101937.38;5031853;28;20125;-70
2021/01/18 01:42:37;;;;;;;7.82;4.05;;;;;;;4.54;53.03;101935.63;5032700;28;20052;-70
2021/01/18 01:45:06;;;;;;;10.07;3.95;;;;;;;4.55;53.13;101938.25;5028613;28;20061;-70
2021/01/18 01:47:37;;;;;;;9.10;4.30;;;;;;;4.54;53.33;101928.38;5024469;28;20389;-70
2021/01/18 01:50:08;;;;;;;6.30;3.70;;;;;;;4.54;52.87;101924.78;5030553;28;20120;-71
2021/01/18 01:52:39;;;;;;;7.70;3.42;;;;;;;4.54;53.10;101933.78;5024612;28;20042;-70
2021/01/18 01:55:15;;;;;;;9.55;4.38;;;;;;;4.56;53.38;101934.63;5029931;28;20045;-71
2021/01/18 01:57:42;;;;;;;8.18;3.90;;;;;;;4.53;53.05;101931.16;5026738;28;20053;-70
2021/01/18 02:00:10;;;;;;;8.82;4.78;;;;;;;4.56;52.93;101933.72;5031786;28;20095;-70
2021/01/18 02:02:37;;;;;;;10.15;4.78;;;;;;;4.54;53.02;101941.91;5032457;28;20045;-70
2021/01/18 02:05:13;;;;;;;8.48;4.55;;;;;;;4.56;53.46;101942.75;5026115;28;20041;-70
2021/01/18 02:07:41;;;;;;;11.68;5.45;;;;;;;4.55;52.93;101949.09;5032395;28;20136;-70
2021/01/18 02:10:11;;;;;;;10.15;5.00;;;;;;;4.56;52.85;101934.63;5035413;28;20037;-70
2021/01/18 02:12:39;;;;;;;10.88;5.22;;;;;;;4.56;52.82;101944.56;5023818;28;20042;-70
2021/01/18 02:15:17;;;;;;;10.15;5.97;;;;;;;4.59;53.56;101936.31;5039581;28;20405;-70
2021/01/18 02:18:09;;;;;;;9.75;5.40;;;;;;;4.57;53.54;101936.38;5033057;28;20090;-70
2021/01/18 02:21:07;;;;;;;8.70;4.65;;;;;;;4.57;53.79;101939.09;5024913;28;20088;-70
2021/01/18 02:24:14;;;;;;;9.13;5.13;;;;;;;4.54;53.58;101928.38;5030920;28;20376;-70
2021/01/18 02:27:01;;;;;;;9.85;4.78;;;;;;;4.55;53.74;101919.28;5029891;28;20068;-70
2021/01/18 02:29:41;;;;;;;12.40;5.50;;;;;;;4.57;53.59;101917.41;5037664;28;20033;-70
2021/01/18 02:32:36;;;;;;;13.13;6.32;;;;;;;4.56;53.53;101920.19;5032288;28;20392;-70
2021/01/18 02:35:22;;;;;;;10.02;5.70;;;;;;;4.57;53.45;101919.25;5025659;28;20132;-70
2021/01/18 02:38:14;;;;;;;11.77;6.03;;;;;;;4.55;53.61;101924.72;5032504;28;20052;-70
2021/01/18 02:40:56;;;;;;;12.52;6.43;;;;;;;4.56;53.40;101920.19;5023672;28;20565;-71
2021/01/18 02:43:29;;;;;;;9.30;5.40;;;;;;;4.58;53.01;101929.13;5029569;28;20515;-71
2021/01/18 02:46:21;;;;;;;;;;;;;;;4.33;53.93;101929.31;5027995;28;20050;-70
2021/01/18 02:48:49;;;;;;;11.13;5.75;;;;;;;4.50;53.05;101925.88;5029973;28;19929;-70
2021/01/18 02:51:19;;;;;;;12.93;6.90;;;;;;;4.55;53.02;101926.53;5029275;28;20103;-71
2021/01/18 02:53:58;;;;;;;9.32;5.60;;;;;;;4.57;53.37;101928.25;5020319;28;20136;-70
2021/01/18 02:56:27;;;;;;;12.57;6.25;;;;;;;4.55;52.79;101918.41;5024469;28;20080;-70
2021/01/18 02:58:57;;;;;;;10.38;6.70;;;;;;;4.55;53.06;101923.84;5028166;28;20616;-70
2021/01/18 03:01:41;;;;;;;12.35;6.30;;;;;;;4.56;53.38;101925.59;5028020;28;20099;-70
2021/01/18 03:04:18;;;;;;;10.40;5.30;;;;;;;4.56;53.10;101925.59;5022610;28;20053;-70
2021/01/18 03:06:55;;;;;;;11.73;6.60;;;;;;;4.56;53.07;101926.47;5031149;28;20064;-70
2021/01/18 03:09:30;;;;;;;10.65;5.68;;;;;;;4.57;52.88;101930.97;5026942;28;20049;-71
2021/01/18 03:12:05;;;;;;;11.48;6.20;;;;;;;4.57;52.90;101928.25;5024954;28;20425;-70
2021/01/18 03:14:38;;;;;;;10.10;5.47;;;;;;;4.58;53.07;101927.31;5032893;28;20038;-70
2021/01/18 03:17:09;;;;;;;10.75;5.47;;;;;;;4.55;52.87;101935.56;5029154;28;20052;-70
2021/01/18 03:19:42;;;;;;;11.25;5.63;;;;;;;4.58;53.29;101937.25;5031897;28;20045;-70
2021/01/18 03:22:10;;;;;;;11.10;5.90;;;;;;;4.56;52.71;101941.84;5026054;28;20092;-70
2021/01/18 03:24:38;;;;;;;12.73;6.22;;;;;;;4.58;52.60;101939.97;5028180;28;20040;-70
2021/01/18 03:27:06;;;;;;;9.98;5.72;;;;;;;4.57;52.74;101936.38;5024118;28;20060;-70
2021/01/18 03:29:33;;;;;;;12.27;6.30;;;;;;;4.58;52.65;101937.25;5031582;28;20474;-70
2021/01/18 03:32:00;;;;;;;8.60;5.25;;;;;;;4.57;52.60;101939.09;5022339;28;20077;-70
2021/01/18 03:34:28;;;;;;;10.68;5.68;;;;;;;4.57;52.77;101930.06;5023180;28;20042;-70
2021/01/18 03:36:56;;;;;;;11.20;5.13;;;;;;;4.57;52.59;101917.41;5030912;28;20042;-70
2021/01/18 03:39:23;;;;;;;8.70;5.28;;;;;;;4.58;52.56;101926.41;5028723;28;20038;-70
2021/01/18 03:41:51;;;;;;;9.23;4.57;;;;;;;4.59;52.58;101925.47;5027772;28;20049;-70
2021/01/18 03:44:19;;;;;;;8.88;4.78;;;;;;;4.59;52.80;101917.34;5032092;28;20045;-70
2021/01/18 03:46:47;;;;;;;9.05;4.78;;;;;;;4.58;52.40;101931.84;5023769;28;20121;-70
2021/01/18 03:49:15;;;;;;;8.65;5.20;;;;;;;4.58;52.66;101927.31;5027982;28;20048;-70
2021/01/18 03:51:43;;;;;;;8.57;4.65;;;;;;;4.60;52.50;101929.94;5042706;28;20049;-70
2021/01/18 03:54:10;;;;;;;10.25;4.60;;;;;;;4.59;52.60;101934.50;5032861;28;20133;-70
2021/01/18 03:56:38;;;;;;;8.50;4.70;;;;;;;4.59;52.65;101928.19;5027687;28;20053;-70
2021/01/18 03:59:07;;;;;;;10.52;4.82;;;;;;;4.60;52.49;101927.25;5027474;28;20128;-70
2021/01/18 04:01:38;;;;;;;8.88;5.00;;;;;;;4.60;52.42;101932.66;5029281;28;20544;-70
2021/01/18 04:04:06;;;;;;;7.38;4.82;;;;;;;4.59;52.52;101926.38;5030235;28;20053;-70
2021/01/18 04:06:35;;;;;;;9.77;5.18;;;;;;;4.60;52.66;101920.00;5030109;28;20049;-70
2021/01/18 04:09:03;;;;;;;8.73;4.85;;;;;;;4.59;52.61;101923.66;5028520;28;20382;-70
2021/01/18 04:11:30;;;;;;;10.45;5.35;;;;;;;4.59;52.60;101928.19;5028772;28;20112;-70
2021/01/18 04:14:18;;;;;;;9.63;5.13;;;;;;;4.60;52.42;101927.25;5019465;28;20524;-70
2021/01/18 04:17:05;;;;;;;9.43;4.78;;;;;;;4.59;52.43;101929.06;5027430;28;20681;-70
2021/01/18 04:19:53;;;;;;;9.20;4.63;;;;;;;4.59;52.43;101929.06;5025735;28;20472;-70
2021/01/18 04:22:45;;;;;;;13.60;5.97;;;;;;;4.60;52.66;101928.13;5020288;28;20517;-70
2021/01/18 04:25:33;;;;;;;12.57;5.93;;;;;;;4.58;52.52;101931.84;5028653;28;20072;-70
2021/01/18 04:28:20;;;;;;;10.52;5.43;;;;;;;4.58;52.50;101932.72;5026920;28;20724;-70
2021/01/18 04:31:08;;;;;;;11.75;5.85;;;;;;;4.59;52.45;101937.19;5021632;28;20045;-70
2021/01/18 04:33:56;;;;;;;10.40;5.03;;;;;;;4.59;52.38;101930.91;5025524;28;20477;-70
2021/01/18 04:36:43;;;;;;;11.65;5.18;;;;;;;4.58;52.27;101927.31;5025814;28;20081;-70
2021/01/18 04:39:30;;;;;;;9.50;5.63;;;;;;;4.59;52.36;101936.31;5027699;28;20037;-70
2021/01/18 04:42:18;;;;;;;10.13;5.00;;;;;;;4.59;52.49;101929.06;5019787;28;20358;-70
2021/01/18 04:44:47;;;;;;;10.93;5.40;;;;;;;4.60;52.57;101938.97;5012250;28;20064;-70
2021/01/18 04:47:19;;;;;;;9.68;5.10;;;;;;;4.60;52.56;101930.84;5029932;28;20116;-70
2021/01/18 04:49:49;;;;;;;10.95;5.47;;;;;;;4.60;52.34;101927.25;5030341;28;20033;-70
2021/01/18 04:52:17;;;;;;;11.20;5.57;;;;;;;4.60;52.36;101925.41;5024874;28;20509;-70
2021/01/18 04:54:54;;;;;;;9.85;5.18;;;;;;;4.60;52.51;101919.13;5021003;28;20053;-70
2021/01/18 04:57:27;;;;;;;10.05;4.93;;;;;;;4.59;52.01;101926.38;5022806;28;20035;-70
2021/01/18 05:00:04;;;;;;;9.57;4.70;;;;;;;4.61;52.73;101919.00;5020861;28;20459;-70
2021/01/18 05:02:39;;;;;;;11.38;5.05;;;;;;;4.61;52.74;101915.44;5029873;28;20038;-70
2021/01/18 05:05:21;;;;;;;10.30;5.15;;;;;;;4.61;52.64;101916.31;5028108;28;20045;-70
2021/01/18 05:08:05;;;;;;;9.35;4.35;;;;;;;4.62;52.71;101914.47;5013857;28;20049;-70
2021/01/18 05:10:33;;;;;;;8.00;5.10;;;;;;;4.58;52.36;101915.59;5027106;28;20083;-70
2021/01/18 05:13:03;;;;;;;11.25;5.93;;;;;;;4.60;52.38;101910.97;5027435;28;20042;-70
2021/01/18 05:15:33;;;;;;;10.05;5.32;;;;;;;4.59;52.28;101910.09;5024579;28;20143;-70
2021/01/18 05:18:07;;;;;;;9.70;5.53;;;;;;;4.60;52.43;101909.16;5031579;28;20041;-70
2021/01/18 05:20:35;;;;;;;9.55;5.00;;;;;;;4.56;52.55;101912.94;5026235;28;20469;-70
2021/01/18 05:23:07;;;;;;;9.10;5.20;;;;;;;4.58;52.29;101910.16;5025432;28;20072;-70
2021/01/18 05:25:36;;;;;;;10.98;4.72;;;;;;;4.56;52.38;101918.34;5029061;28;20037;-70
2021/01/18 05:28:08;;;;;;;10.20;5.57;;;;;;;4.57;52.36;101919.25;5027152;28;20057;-70
2021/01/18 05:30:42;;;;;;;10.23;5.43;;;;;;;4.55;52.57;101916.59;5023828;28;20485;-70
2021/01/18 05:33:12;;;;;;;8.55;4.55;;;;;;;4.57;52.52;101919.25;5024595;28;20056;-71
2021/01/18 05:35:41;;;;;;;7.07;4.18;;;;;;;4.58;52.32;101912.88;5021353;28;20041;-71
2021/01/18 05:38:12;;;;;;;10.82;5.63;;;;;;;4.57;52.62;101919.25;5019379;28;20073;-70
2021/01/18 05:40:42;;;;;;;11.02;5.00;;;;;;;4.57;52.37;101917.41;5027322;28;20090;-70
2021/01/18 05:43:13;;;;;;;8.93;4.95;;;;;;;4.55;52.41;101919.28;5024847;28;20128;-70
2021/01/18 05:45:46;;;;;;;8.55;5.10;;;;;;;4.57;52.44;101921.94;5024698;28;20054;-70
2021/01/18 05:48:28;;;;;;;9.73;5.15;;;;;;;4.58;52.77;101921.88;5018315;28;20045;-70
2021/01/18 05:50:56;;;;;;;11.88;5.50;;;;;;;4.56;52.31;101917.47;5023500;28;20038;-70
2021/01/18 05:53:26;;;;;;;9.73;5.50;;;;;;;4.56;52.60;101925.59;5028825;28;20025;-70
2021/01/18 05:56:16;;;;;;;8.02;5.05;;;;;;;4.58;52.97;101937.25;5019557;28;20486;-70
2021/01/18 05:58:47;;;;;;;11.13;5.72;;;;;;;4.56;52.42;101931.91;5018922;28;20141;-70
2021/01/18 06:01:37;;;;;;;10.85;5.50;;;;;;;4.57;53.05;101938.22;5026570;28;20060;-70
2021/01/18 06:04:10;;;;;;;11.88;6.00;;;;;;;4.57;52.78;101936.38;5027669;28;20036;-70
2021/01/18 06:06:38;;;;;;;11.10;5.38;;;;;;;4.55;52.49;101935.56;5021016;28;20052;-70
2021/01/18 06:09:05;;;;;;;10.73;5.13;;;;;;;4.58;52.43;101937.25;5022631;28;20068;-70
2021/01/18 06:11:33;;;;;;;11.40;5.45;;;;;;;4.59;52.62;101939.03;5023353;28;20417;-70
2021/01/18 06:14:05;;;;;;;12.07;5.80;;;;;;;4.59;52.66;101937.19;5019186;28;20041;-70
2021/01/18 06:16:40;;;;;;;13.85;6.60;;;;;;;4.60;52.67;101929.94;5027343;28;20400;-70
2021/01/18 06:19:10;;;;;;;10.88;5.82;;;;;;;4.60;52.44;101932.66;5021642;28;20515;-70
2021/01/18 06:21:40;;;;;;;10.73;5.95;;;;;;;4.61;52.67;101932.56;5032750;28;20493;-71
2021/01/18 06:24:25;;;;;;;13.57;6.32;;;;;;;4.62;53.09;101942.47;5026111;28;20038;-70
2021/01/18 06:26:55;;;;;;;10.38;5.40;;;;;;;4.58;52.58;101934.56;5037169;28;20046;-70
2021/01/18 06:29:40;;;;;;;13.18;6.47;;;;;;;4.59;52.98;101931.78;5028749;28;20072;-70
2021/01/18 06:32:29;;;;;;;10.20;5.57;;;;;;;4.60;52.73;101940.78;5024633;28;20145;-70
2021/01/18 06:35:00;;;;;;;10.18;5.75;;;;;;;4.59;52.67;101944.44;5029045;28;20037;-70
2021/01/18 06:37:31;;;;;;;9.48;5.85;;;;;;;4.57;52.54;101935.50;5025989;28;20030;-70
2021/01/18 06:40:01;;;;;;;8.68;6.03;;;;;;;4.58;52.46;101938.16;5027038;28;20112;-70
2021/01/18 06:42:30;;;;;;;12.10;6.20;;;;;;;4.58;52.58;101931.84;5020596;28;20033;-70
2021/01/18 06:45:01;;;;;;;11.02;5.95;;;;;;;4.58;52.66;101934.56;5024789;28;20038;-70
2021/01/18 06:47:32;;;;;;;10.13;5.82;;;;;;;4.59;52.29;101930.91;5025112;28;20060;-70
2021/01/18 06:50:07;;;;;;;9.93;5.65;;;;;;;4.60;52.86;101928.13;5036968;28;20441;-70
2021/01/18 06:52:54;;;;;;;11.98;6.13;;;;;;;4.60;52.82;101927.25;5021370;28;21174;-70
2021/01/18 06:55:26;;;;;;;14.32;6.25;;;;;;;4.58;52.91;101924.59;5026323;28;20052;-70
2021/01/18 06:58:03;;;;;;;12.55;6.05;;;;;;;4.59;52.73;101925.47;5021264;28;20048;-70
2021/01/18 07:00:34;;;;;;;13.98;6.68;;;;;;;4.59;52.57;101929.06;5026916;28;20035;-70
2021/01/18 07:03:13;;;;;;;11.20;5.63;;;;;;;4.62;52.88;101925.31;5028095;28;20034;-70
2021/01/18 07:05:55;;;;;;;11.75;6.50;;;;;;;4.62;53.17;101923.50;5025110;28;20125;-70
2021/01/18 07:08:38;;;;;;;11.07;6.13;;;;;;;4.63;52.88;101930.69;5032458;28;20120;-71
2021/01/18 07:11:10;;;;;;;13.50;5.88;;;;;;;4.63;52.74;101929.78;5025928;28;20100;-70
2021/01/18 07:13:42;;;;;;;13.02;5.45;;;;;;;4.64;52.60;101936.97;5029855;28;20057;-70
2021/01/18 07:16:18;;;;;;;10.10;5.18;;;;;;;4.65;52.69;101944.16;5030677;28;20061;-70
2021/01/18 07:18:56;;;;;;;9.90;5.70;;;;;;;4.64;52.54;101940.56;5024730;28;20041;-69
2021/01/18 07:21:29;;;;;;;8.77;5.40;;;;;;;4.67;52.67;101940.44;5025038;28;20077;-70
2021/01/18 07:24:15;;;;;;;11.23;5.85;;;;;;;4.66;53.04;101938.69;5027179;28;20145;-70
2021/01/18 07:27:24;;;;;;;16.50;6.78;;;;;;;4.64;52.76;101931.56;5027575;28;20497;-70
2021/01/18 07:30:12;;;;;;;12.00;5.63;;;;;;;4.64;52.56;101931.56;5030458;28;20049;-70
2021/01/18 07:32:45;;;;;;;8.02;4.97;;;;;;;4.65;52.78;101922.47;5019948;28;20040;-70
2021/01/18 07:35:13;;;;;;;15.73;7.35;;;;;;;4.65;52.62;101925.19;5027577;28;20384;-70
2021/01/18 07:37:42;;;;;;;9.77;5.28;;;;;;;4.66;52.99;101925.13;5028381;28;20038;-70
2021/01/18 07:40:10;;;;;;;10.38;5.38;;;;;;;4.65;52.66;101928.78;5029583;28;20037;-70
2021/01/18 07:42:58;;;;;;;11.27;5.50;;;;;;;4.64;52.40;101932.44;5022842;28;20045;-70
2021/01/18 07:45:45;;;;;;;11.73;6.03;;;;;;;4.64;52.60;101929.72;5029923;28;20037;-70
2021/01/18 07:48:32;;;;;;;13.20;6.68;;;;;;;4.63;52.58;101919.84;5029876;28;20417;-70
2021/01/18 07:51:20;;;;;;;15.93;6.55;;;;;;;4.63;52.47;101927.97;5025246;28;20049;-69
2021/01/18 07:54:34;;;;;;;12.60;5.72;;;;;;;4.64;53.00;101928.84;5025709;28;20038;-70
2021/01/18 07:57:30;;;;;;;12.38;5.55;;;;;;;4.65;52.90;101928.78;5027604;28;20044;-70
2021/01/18 08:00:31;;;;;;;10.88;6.00;;;;;;;4.65;52.78;101930.63;5024365;28;20057;-70
2021/01/18 08:03:28;;;;;;;11.50;6.13;;;;;;;4.65;52.74;101927.91;5021865;28;20132;-71
2021/01/18 08:06:15;;;;;;;11.00;5.63;;;;;;;4.64;52.70;101931.56;5032072;28;20046;-70
2021/01/18 08:08:45;;;;;;;12.93;6.22;;;;;;;4.61;52.38;101929.84;5030747;28;20330;-70
2021/01/18 08:11:18;;;;;;;13.10;6.38;;;;;;;4.63;52.44;101933.38;5029587;28;20037;-70
2021/01/18 08:13:56;;;;;;;15.07;7.00;;;;;;;4.65;52.70;101936.03;5032763;28;20041;-70
2021/01/18 08:16:26;;;;;;;12.85;6.13;;;;;;;4.62;52.41;101922.59;5020397;28;20085;-70
2021/01/18 08:19:01;;;;;;;15.70;6.30;;;;;;;4.61;52.58;101924.44;5022226;28;20068;-70
2021/01/18 08:21:58;;;;;;;11.60;6.43;;;;;;;4.62;52.53;101928.91;5019005;28;20772;-70
2021/01/18 08:24:49;;;;;;;13.73;6.15;;;;;;;4.61;52.70;101927.16;5028589;28;20046;-70
2021/01/18 08:27:43;;;;;;;14.98;6.32;;;;;;;4.59;52.74;101936.31;5029818;28;20488;-70
2021/01/18 08:30:38;;;;;;;10.43;5.97;;;;;;;4.56;52.98;101934.63;5023489;28;20048;-70
2021/01/18 08:33:10;;;;;;;10.38;5.32;;;;;;;4.57;52.60;101939.09;5024535;28;20053;-70
2021/01/18 08:35:43;;;;;;;13.50;5.72;;;;;;;4.60;52.80;101943.50;5024854;28;20037;-71
2021/01/18 08:38:31;;;;;;;11.90;5.63;;;;;;;4.56;52.41;101937.31;5024404;28;20548;-70
2021/01/18 08:41:06;;;;;;;14.35;5.57;;;;;;;4.62;52.84;101941.59;5022910;28;20065;-70
2021/01/18 08:43:50;;;;;;;11.07;5.03;;;;;;;4.63;52.67;101951.47;5027364;28;20068;-70
2021/01/18 08:46:42;;;;;;;9.55;5.40;;;;;;;4.59;52.54;101948.03;5025905;28;20037;-69
2021/01/18 08:49:28;;;;;;;10.80;5.10;;;;;;;4.63;53.06;101940.63;5026717;28;20053;-70
2021/01/18 08:52:02;;;;;;;12.80;5.45;;;;;;;4.62;52.62;101939.75;5025018;28;20034;-70
2021/01/18 08:54:33;;;;;;;12.15;6.00;;;;;;;4.64;52.62;101948.69;5031607;28;20049;-70
2021/01/18 08:57:23;;;;;;;11.73;5.43;;;;;;;4.66;53.04;101948.66;5017599;28;20041;-71
2021/01/18 09:00:07;;;;;;;9.98;5.47;;;;;;;4.64;53.13;101948.69;5018728;28;20126;-71
2021/01/18 09:02:36;;;;;;;14.05;5.70;;;;;;;4.66;52.67;101946.81;5016361;28;20091;-71
2021/01/18 09:05:15;;;;;;;12.85;5.47;;;;;;;4.70;52.98;101948.41;5025710;28;20048;-71
2021/01/18 09:07:45;;;;;;;11.30;6.07;;;;;;;4.69;52.79;101943.06;5023493;28;20424;-71
2021/01/18 09:10:16;;;;;;;10.88;5.65;;;;;;;4.71;52.74;101950.19;5027149;28;20041;-71
2021/01/18 09:13:07;;;;;;;12.00;4.97;;;;;;;4.74;52.90;101954.59;5025420;28;20417;-71
2021/01/18 09:15:57;;;;;;;11.70;5.07;;;;;;;4.75;52.90;101951.81;5024670;28;20055;-71
2021/01/18 09:18:45;;;;;;;11.85;5.20;;;;;;;4.74;52.77;101955.47;5023713;28;20046;-70
2021/01/18 09:21:32;;;;;;;12.77;5.75;;;;;;;4.76;52.70;101953.59;5023992;28;20053;-71
2021/01/18 09:24:20;;;;;;;12.65;5.28;;;;;;;4.79;52.79;101958.84;5025741;28;20056;-71
2021/01/18 09:27:07;;;;;;;9.68;5.03;;;;;;;4.79;52.87;101948.00;5025365;28;20049;-71
2021/01/18 09:30:01;;;;;;;12.77;4.78;;;;;;;4.83;52.99;101954.19;5022046;28;20060;-72
2021/01/18 09:32:56;;;;;;;11.40;5.10;;;;;;;4.85;53.15;101950.44;5023789;28;20053;-72
2021/01/18 09:35:46;;;;;;;12.43;4.88;;;;;;;4.85;52.81;101947.72;5023646;28;20045;-70
2021/01/18 09:38:34;;;;;;;11.45;5.13;;;;;;;4.87;53.02;101939.53;5021385;28;20048;-70
2021/01/18 09:41:25;;;;;;;10.05;5.40;;;;;;;4.88;52.84;101946.72;5026517;28;20041;-71
2021/01/18 09:44:13;;;;;;;12.20;5.63;;;;;;;4.91;52.79;101945.72;5024114;28;20033;-73
2021/01/18 09:47:00;;;;;;;12.75;5.55;;;;;;;4.91;52.62;101941.16;5019335;28;20440;-71
2021/01/18 09:49:49;;;;;;;10.18;4.90;;;;;;;4.93;52.67;101942.00;5033420;28;20148;-69
2021/01/18 09:52:41;;;;;;;12.10;4.78;;;;;;;4.96;52.83;101946.38;5032420;28;20552;-70
2021/01/18 09:55:33;;;;;;;12.27;5.20;;;;;;;4.98;52.74;101952.59;5028723;28;20061;-69
2021/01/18 09:58:26;;;;;;;12.00;5.20;;;;;;;4.99;52.65;101949.84;5027227;28;20132;-69
2021/01/18 10:01:17;;;;;;;14.77;5.20;;;;;;;4.99;52.64;101960.69;5026176;28;20041;-70
2021/01/18 10:04:07;;;;;;;11.55;6.03;;;;;;;5.03;52.68;101953.28;5008986;28;20038;-70
2021/01/18 10:07:03;;;;;;;10.73;5.25;;;;;;;5.05;52.73;101957.69;5025415;28;20081;-72
2021/01/18 10:09:55;;;;;;;13.40;5.82;;;;;;;5.05;52.58;101952.25;5023902;28;20045;-72
2021/01/18 10:12:49;;;;;;;11.20;4.93;;;;;;;5.07;52.58;101950.38;5028666;28;20404;-70
2021/01/18 10:15:37;;;;;;;10.73;5.70;;;;;;;5.07;52.52;101952.19;5020729;28;20037;-70
2021/01/18 10:18:28;;;;;;;9.82;4.97;;;;;;;5.11;52.62;101945.66;5024234;28;20569;-70
2021/01/18 10:21:16;;;;;;;10.98;5.10;;;;;;;5.10;52.49;101941.22;5028863;28;20044;-71
2021/01/18 10:24:05;;;;;;;12.55;4.78;;;;;;;5.12;52.48;101929.31;5028367;28;20073;-70
2021/01/18 10:26:37;;;;;;;11.93;5.43;;;;;;;5.15;52.53;101931.91;5028947;28;20092;-70
2021/01/18 10:29:07;;;;;;;12.18;5.40;;;;;;;5.15;52.48;101926.47;5026990;28;20496;-70
2021/01/18 10:31:34;;;;;;;12.35;4.60;;;;;;;5.16;52.44;101924.66;5027602;28;20049;-70
2021/01/18 10:34:16;;;;;;;12.15;5.00;;;;;;;5.21;52.48;101915.34;5023643;28;20136;-70
2021/01/18 10:36:47;;;;;;;10.13;4.63;;;;;;;5.20;52.40;101919.00;5028145;28;20037;-69
2021/01/18 10:39:28;;;;;;;12.73;5.57;;;;;;;5.23;52.30;101915.25;5030068;28;20518;-69
2021/01/18 10:42:13;;;;;;;10.00;4.57;;;;;;;5.23;52.17;101915.25;5031495;28;20042;-69
2021/01/18 10:44:50;;;;;;;14.05;5.00;;;;;;;5.27;52.28;101911.44;5024087;28;20092;-70
2021/01/18 10:47:20;;;;;;;11.68;4.63;;;;;;;5.26;52.11;101912.41;5027100;28;20128;-71
2021/01/18 10:49:51;;;;;;;10.15;4.40;;;;;;;5.30;52.08;101905.88;5033522;28;20042;-70
2021/01/18 10:52:32;;;;;;;13.27;4.35;;;;;;;5.32;52.25;101913.94;5029216;28;20056;-69
2021/01/18 10:55:08;;;;;;;9.45;4.70;;;;;;;5.31;52.29;101912.19;5034178;28;20124;-69
2021/01/18 10:57:53;;;;;;;7.85;4.25;;;;;;;5.32;52.33;101903.97;5031693;28;20064;-70
2021/01/18 11:00:31;;;;;;;9.82;3.70;;;;;;;5.35;52.18;101898.38;5037480;28;20044;-69
2021/01/18 11:03:01;;;;;;;10.70;4.28;;;;;;;5.39;52.07;101897.28;5022577;28;20045;-70
2021/01/18 11:05:38;;;;;;;10.07;3.92;;;;;;;5.41;52.03;101903.53;5026486;28;20049;-71
2021/01/18 11:08:07;;;;;;;10.70;4.43;;;;;;;5.43;52.28;101900.75;5027465;28;20428;-71
2021/01/18 11:10:43;;;;;;;8.05;3.97;;;;;;;5.45;52.02;101902.41;5027630;28;20042;-71
2021/01/18 11:13:26;;;;;;;10.45;4.40;;;;;;;5.46;51.96;101879.75;5029919;28;20038;-70
2021/01/18 11:18:39;;;;;;;7.30;3.67;;;;;;;5.51;52.00;101874.16;5027355;28;20458;-70
2021/01/18 11:21:25;;;;;;;10.05;3.80;;;;;;;5.56;52.18;101870.25;5028993;28;20033;-70
2021/01/18 11:23:54;;;;;;;7.68;3.40;;;;;;;5.59;52.27;101869.22;5020531;28;20501;-71
2021/01/18 11:26:24;;;;;;;10.30;3.88;;;;;;;5.65;52.30;101859.91;5021000;28;20030;-70
2021/01/18 11:28:51;;;;;;;7.47;3.72;;;;;;;5.65;52.11;101849.91;5028644;28;20496;-70
2021/01/18 11:31:19;;;;;;;9.05;3.13;;;;;;;5.73;52.03;101846.81;5024614;28;20120;-70
2021/01/18 11:33:50;;;;;;;9.55;3.63;;;;;;;5.77;52.29;101843.84;5029257;28;20092;-71
2021/01/18 11:36:24;;;;;;;7.45;3.28;;;;;;;5.83;51.54;101839.97;5026017;28;20465;-71
2021/01/18 11:38:52;;;;;;;7.35;3.00;;;;;;;5.85;52.05;101838.91;5011453;28;20111;-71
2021/01/18 11:41:22;;;;;;;8.30;3.45;;;;;;;5.90;51.78;101835.97;5029063;28;20481;-71
2021/01/18 11:47:03;;;;;;;7.80;3.03;;;;;;;5.96;51.53;101828.38;5016707;28;20065;-71
2021/01/18 11:49:31;;;;;;;8.57;2.83;;;;;;;5.99;51.43;101821.94;5021393;28;20049;-70
2021/01/18 11:52:04;;;;;;;7.27;2.97;;;;;;;6.00;51.44;101818.25;5028968;28;20041;-71
2021/01/18 11:54:31;;;;;;;8.95;3.17;;;;;;;6.04;51.45;101811.69;5031377;28;20041;-70
2021/01/18 11:57:06;;;;;;;7.13;3.15;;;;;;;6.06;51.10;101817.94;5026180;28;20041;-70
2021/01/18 11:59:34;;;;;;;6.97;3.13;;;;;;;6.09;51.11;101808.75;5029698;28;20056;-70
2021/01/18 12:02:06;;;;;;;8.65;3.05;;;;;;;6.08;51.07;101815.13;5026416;28;20402;-70
2021/01/18 12:04:39;;;;;;;9.00;2.92;;;;;;;6.10;51.22;101808.66;5024659;28;20037;-70
2021/01/18 12:07:10;;;;;;;9.88;3.08;;;;;;;6.13;50.73;101808.50;5026583;28;20092;-70
2021/01/18 12:09:39;;;;;;;6.07;2.70;;;;;;;6.11;50.65;101810.41;5019994;28;20104;-70
2021/01/18 12:12:37;;;;;;;7.15;3.03;;;;;;;6.13;50.95;101794.91;5022468;28;20315;-69
2021/01/18 12:15:07;;;;;;;6.35;2.80;;;;;;;6.17;50.79;101788.34;5030271;28;20068;-69
2021/01/18 12:17:42;;;;;;;7.40;3.00;;;;;;;6.16;50.76;101789.34;5021619;28;20040;-69